Time;durP1;ratioP1;P1;durP2;ratioP2;P2;SDS_P1;SDS_P2;PMS_P1;PMS_P2;Temp;Humidity;BMP_temperature;BMP_pressure;BME280_temperature;BME280_humidity;BME280_pressure;Samples;Min_cycle;Max_cycle;Signal;HPM_P1;HPM_P2
2022/12/19 00:00:01;;;;;;;11.27;7.07;;;;;;;;;;21162716;28;20134;-62
2022/12/19 00:10:04;;;;;;;11.20;7.03;;;;;;;;;;21180203;28;20044;-62
2022/12/19 00:20:07;;;;;;;12.18;6.95;;;;;;;;;;21179720;28;20194;-62
2022/12/19 00:30:10;;;;;;;15.18;6.78;;;;;;;;;;21179280;28;20051;-64
2022/12/19 00:40:12;;;;;;;14.50;6.88;;;;;;;;;;21177664;28;20043;-64
2022/12/19 00:50:14;;;;;;;11.18;6.70;;;;;;;;;;21178200;28;20130;-61
2022/12/19 01:00:17;;;;;;;29.23;15.25;;;;;;;;;;21172917;28;20047;-62
2022/12/19 01:10:19;;;;;;;20.27;10.27;;;;;;;;;;21170202;28;20048;-62
2022/12/19 01:20:21;;;;;;;17.58;8.23;;;;;;;;;;21169519;28;20040;-63
2022/12/19 01:30:25;;;;;;;35.63;14.90;;;;;;;;;;21169292;28;20086;-62
2022/12/19 01:40:27;;;;;;;22.73;10.63;;;;;;;;;;21170085;28;20427;-63
2022/12/19 01:50:49;;;;;;;15.05;8.48;;;;;;;;;;21167576;28;20055;-63
2022/12/19 02:00:52;;;;;;;14.05;6.97;;;;;;;;;;20786758;28;1184115;-64
2022/12/19 02:10:55;;;;;;;11.48;6.65;;;;;;;;;;20828266;28;20049;-63
2022/12/19 02:21:15;;;;;;;14.07;7.18;;;;;;;;;;20827456;28;20057;-63
2022/12/19 02:31:50;;;;;;;8.55;5.88;;;;;;;;;;20903060;28;20411;-62
2022/12/19 02:41:56;;;;;;;11.60;6.05;;;;;;;;;;20825376;28;20045;-63
2022/12/19 02:52:10;;;;;;;9.55;5.75;;;;;;;;;;20825037;28;20045;-62
2022/12/19 03:02:19;;;;;;;9.18;5.13;;;;;;;;;;20807775;28;20041;-62
2022/12/19 03:12:28;;;;;;;10.70;5.55;;;;;;;;;;20924666;28;20491;-62
2022/12/19 03:22:31;;;;;;;8.68;5.25;;;;;;;;;;21165269;28;20492;-62
2022/12/19 03:32:37;;;;;;;12.48;6.13;;;;;;;;;;21164349;28;20051;-62
2022/12/19 03:53:16;;;;;;;10.63;6.65;;;;;;;;;;21163228;28;20051;-62
2022/12/19 04:03:20;;;;;;;12.05;6.15;;;;;;;;;;21162377;28;20052;-63
2022/12/19 04:13:25;;;;;;;11.45;6.13;;;;;;;;;;21162984;28;20048;-63
2022/12/19 04:23:33;;;;;;;11.65;6.63;;;;;;;;;;21162811;28;20044;-62
2022/12/19 04:33:40;;;;;;;14.53;6.90;;;;;;;;;;21166973;28;20127;-63
2022/12/19 04:43:46;;;;;;;9.80;5.43;;;;;;;;;;21162089;28;20055;-61
2022/12/19 04:53:50;;;;;;;8.73;5.63;;;;;;;;;;21173037;28;20055;-62
2022/12/19 05:03:57;;;;;;;11.75;6.88;;;;;;;;;;21175589;28;20087;-62
2022/12/19 05:14:00;;;;;;;14.13;7.60;;;;;;;;;;21175167;28;20091;-62
2022/12/19 05:24:04;;;;;;;20.45;9.50;;;;;;;;;;21174463;28;20048;-64
2022/12/19 05:34:07;;;;;;;19.50;10.48;;;;;;;;;;21174021;28;20054;-63
2022/12/19 05:44:10;;;;;;;25.75;10.63;;;;;;;;;;21172572;28;20130;-62
2022/12/19 05:54:14;;;;;;;20.45;10.23;;;;;;;;;;21171974;28;20054;-63
2022/12/19 06:04:17;;;;;;;21.38;10.48;;;;;;;;;;21169556;28;20451;-62
2022/12/19 06:14:20;;;;;;;21.08;10.10;;;;;;;;;;21170658;28;20055;-62
2022/12/19 06:24:24;;;;;;;19.50;9.93;;;;;;;;;;21171082;28;20043;-63
2022/12/19 06:34:26;;;;;;;22.15;10.45;;;;;;;;;;21168718;28;20054;-62
2022/12/19 06:44:31;;;;;;;19.77;9.60;;;;;;;;;;21167775;28;20457;-63
2022/12/19 06:54:33;;;;;;;19.95;9.73;;;;;;;;;;21167026;28;20048;-63
2022/12/19 07:04:37;;;;;;;20.73;9.88;;;;;;;;;;21166410;28;20055;-63
2022/12/19 07:14:39;;;;;;;15.73;9.38;;;;;;;;;;21166892;28;20102;-62
2022/12/19 07:24:41;;;;;;;19.45;10.07;;;;;;;;;;21169286;28;20388;-63
2022/12/19 07:34:43;;;;;;;22.02;10.23;;;;;;;;;;21164047;28;20039;-61
2022/12/19 07:44:45;;;;;;;19.90;11.05;;;;;;;;;;21163113;28;20408;-62
2022/12/19 07:54:47;;;;;;;14.05;7.88;;;;;;;;;;21162782;28;20056;-63
2022/12/19 08:04:49;;;;;;;21.25;8.68;;;;;;;;;;21162228;28;20093;-63
2022/12/19 08:14:52;;;;;;;18.77;11.88;;;;;;;;;;21162253;28;20048;-63
2022/12/19 08:24:54;;;;;;;17.92;11.65;;;;;;;;;;21167525;28;20058;-63
2022/12/19 08:34:56;;;;;;;18.13;9.85;;;;;;;;;;21177610;28;20052;-63
2022/12/19 08:44:58;;;;;;;18.50;8.85;;;;;;;;;;21176495;28;20056;-62
2022/12/19 08:55:01;;;;;;;17.52;9.48;;;;;;;;;;21176857;28;20047;-62
2022/12/19 09:05:03;;;;;;;18.08;8.02;;;;;;;;;;21176431;28;20048;-62
2022/12/19 09:15:05;;;;;;;16.35;8.95;;;;;;;;;;21175604;28;20047;-63
2022/12/19 09:25:07;;;;;;;24.73;10.85;;;;;;;;;;21173787;28;20048;-62
2022/12/19 09:35:09;;;;;;;17.15;10.35;;;;;;;;;;21172462;28;20044;-62
2022/12/19 09:45:20;;;;;;;18.35;10.63;;;;;;;;;;21172966;28;20494;-62
2022/12/19 09:55:28;;;;;;;21.25;10.98;;;;;;;;;;21143733;28;20131;-62
2022/12/19 10:05:33;;;;;;;19.98;10.75;;;;;;;;;;21086101;28;20131;-63
2022/12/19 10:15:54;;;;;;;22.00;11.27;;;;;;;;;;21085158;28;20098;-62
2022/12/19 10:26:00;;;;;;;26.20;12.27;;;;;;;;;;21084291;28;20055;-62
2022/12/19 10:36:04;;;;;;;20.25;10.88;;;;;;;;;;21083029;28;20048;-62
2022/12/19 10:46:36;;;;;;;17.63;10.35;;;;;;;;;;21063301;28;20118;-61
2022/12/19 10:56:38;;;;;;;13.68;9.20;;;;;;;;;;20823937;28;20521;-62
2022/12/19 11:06:42;;;;;;;16.58;9.23;;;;;;;;;;20822427;28;20060;-61
2022/12/19 11:16:45;;;;;;;13.05;8.73;;;;;;;;;;20822143;28;20049;-64
2022/12/19 11:26:49;;;;;;;13.25;8.35;;;;;;;;;;20888914;28;20063;-61
2022/12/19 11:37:02;;;;;;;19.73;9.00;;;;;;;;;;21078911;28;20516;-63
2022/12/19 11:47:23;;;;;;;17.77;10.45;;;;;;;;;;21078351;28;20134;-64
2022/12/19 11:57:24;;;;;;;12.00;8.38;;;;;;;;;;21082058;28;20474;-63
2022/12/19 12:07:31;;;;;;;14.63;8.30;;;;;;;;;;21095715;28;20044;-62
2022/12/19 12:17:36;;;;;;;15.23;8.88;;;;;;;;;;21095429;28;20119;-61
2022/12/19 12:27:38;;;;;;;14.73;9.77;;;;;;;;;;21094606;28;20055;-64
2022/12/19 12:37:59;;;;;;;14.65;9.25;;;;;;;;;;21093797;28;20049;-61
2022/12/19 12:48:02;;;;;;;13.55;8.15;;;;;;;;;;21093165;28;20484;-61
2022/12/19 12:58:05;;;;;;;18.90;8.65;;;;;;;;;;21091428;28;20048;-61
2022/12/19 13:08:27;;;;;;;11.60;7.97;;;;;;;;;;21091185;28;20457;-62
2022/12/19 13:18:29;;;;;;;11.00;7.88;;;;;;;;;;21080365;28;20416;-62
2022/12/19 13:28:31;;;;;;;13.00;9.65;;;;;;;;;;21090553;28;20056;-62
2022/12/19 13:38:44;;;;;;;13.55;8.57;;;;;;;;;;21088995;28;20044;-64
2022/12/19 13:48:49;;;;;;;8.02;6.38;;;;;;;;;;21091062;28;20060;-62
2022/12/19 13:58:53;;;;;;;12.18;6.35;;;;;;;;;;21087916;28;20489;-62
2022/12/19 14:09:02;;;;;;;9.00;6.70;;;;;;;;;;21086766;28;20444;-61
2022/12/19 14:19:16;;;;;;;8.35;5.47;;;;;;;;;;21084909;28;20078;-61
2022/12/19 14:29:27;;;;;;;10.68;6.32;;;;;;;;;;21084342;28;20048;-62
2022/12/19 14:39:33;;;;;;;10.95;5.63;;;;;;;;;;21084553;28;20407;-61
2022/12/19 14:49:35;;;;;;;9.95;6.88;;;;;;;;;;21082849;28;20058;-61
2022/12/19 14:59:43;;;;;;;7.95;6.13;;;;;;;;;;21082705;28;20083;-62
2022/12/19 15:09:49;;;;;;;13.43;8.27;;;;;;;;;;21081922;28;20054;-62
2022/12/19 15:19:52;;;;;;;20.65;13.00;;;;;;;;;;21082275;28;20052;-62
2022/12/19 15:29:56;;;;;;;25.55;14.82;;;;;;;;;;21080967;28;20047;-62
2022/12/19 15:39:58;;;;;;;24.45;14.60;;;;;;;;;;21079693;28;20054;-62
2022/12/19 15:50:04;;;;;;;25.25;14.50;;;;;;;;;;21079610;28;20048;-63
2022/12/19 16:00:07;;;;;;;24.88;14.50;;;;;;;;;;21078934;28;20052;-60
2022/12/19 16:10:11;;;;;;;22.70;14.27;;;;;;;;;;21078925;28;20052;-62
2022/12/19 16:20:15;;;;;;;24.13;13.40;;;;;;;;;;21078508;28;20044;-63
2022/12/19 16:30:17;;;;;;;23.65;12.82;;;;;;;;;;21078309;28;20048;-62
2022/12/19 16:40:24;;;;;;;22.73;12.38;;;;;;;;;;21078420;28;20164;-62
2022/12/19 16:50:30;;;;;;;22.10;13.40;;;;;;;;;;21090926;28;20096;-61
2022/12/19 17:00:35;;;;;;;26.08;15.80;;;;;;;;;;21092806;28;20052;-61
2022/12/19 17:10:39;;;;;;;26.10;16.25;;;;;;;;;;21092670;28;20377;-62
2022/12/19 17:20:42;;;;;;;23.67;15.60;;;;;;;;;;21091185;28;20059;-61
2022/12/19 17:30:48;;;;;;;22.42;14.00;;;;;;;;;;21090077;28;20048;-61
2022/12/19 17:40:51;;;;;;;26.70;13.88;;;;;;;;;;21089855;28;20040;-61
2022/12/19 17:50:54;;;;;;;21.73;13.27;;;;;;;;;;21089284;28;20051;-61
2022/12/19 18:00:56;;;;;;;21.05;12.43;;;;;;;;;;21087583;28;20055;-63
2022/12/19 18:11:02;;;;;;;22.42;12.00;;;;;;;;;;21085437;28;20492;-61
2022/12/19 18:21:04;;;;;;;17.52;11.57;;;;;;;;;;21084361;28;20404;-60
2022/12/19 18:31:14;;;;;;;24.67;12.90;;;;;;;;;;21084176;28;20051;-62
2022/12/19 18:41:17;;;;;;;23.70;13.40;;;;;;;;;;21085050;28;20050;-60
2022/12/19 18:51:21;;;;;;;20.38;12.45;;;;;;;;;;21084191;28;20463;-64
2022/12/19 19:01:25;;;;;;;30.27;15.90;;;;;;;;;;21082345;28;20127;-61
2022/12/19 19:11:28;;;;;;;32.80;17.92;;;;;;;;;;21082319;28;20496;-62
2022/12/19 19:21:32;;;;;;;38.25;22.35;;;;;;;;;;21082269;28;20442;-61
2022/12/19 19:31:37;;;;;;;29.17;16.88;;;;;;;;;;21080462;28;20127;-63
2022/12/19 19:41:39;;;;;;;26.40;15.60;;;;;;;;;;21079453;28;20044;-62
2022/12/19 19:51:41;;;;;;;30.33;15.73;;;;;;;;;;21080339;28;20524;-63
2022/12/19 20:01:44;;;;;;;27.98;14.88;;;;;;;;;;21080051;28;20476;-64
2022/12/19 20:11:47;;;;;;;27.65;15.70;;;;;;;;;;21078678;28;20056;-62
2022/12/19 20:21:50;;;;;;;31.40;16.75;;;;;;;;;;21087115;28;20079;-62
2022/12/19 20:31:55;;;;;;;28.30;15.55;;;;;;;;;;21093644;28;20071;-62
2022/12/19 20:41:57;;;;;;;24.95;14.57;;;;;;;;;;21092542;28;20048;-63
2022/12/19 20:51:59;;;;;;;27.65;15.07;;;;;;;;;;21092029;28;20169;-61
2022/12/19 21:02:01;;;;;;;21.10;12.68;;;;;;;;;;21091390;28;20052;-62
2022/12/19 21:12:03;;;;;;;21.33;13.10;;;;;;;;;;21091868;28;20415;-62
2022/12/19 21:22:06;;;;;;;30.67;16.08;;;;;;;;;;21091510;28;20411;-63
2022/12/19 21:32:09;;;;;;;26.85;16.73;;;;;;;;;;21088773;28;20052;-61
2022/12/19 21:42:11;;;;;;;25.02;12.77;;;;;;;;;;21088137;28;20504;-61
2022/12/19 21:52:13;;;;;;;24.40;14.52;;;;;;;;;;21088074;28;20096;-62
2022/12/19 22:02:15;;;;;;;26.23;13.63;;;;;;;;;;21087401;28;20054;-63
2022/12/19 22:12:17;;;;;;;23.85;14.68;;;;;;;;;;21085962;28;20143;-63
2022/12/19 22:22:20;;;;;;;22.42;13.77;;;;;;;;;;21085391;28;20048;-61
2022/12/19 22:32:22;;;;;;;24.50;13.73;;;;;;;;;;21085311;28;20505;-62
2022/12/19 22:42:23;;;;;;;19.67;12.15;;;;;;;;;;21083557;28;20055;-63
2022/12/19 22:52:24;;;;;;;21.38;13.00;;;;;;;;;;21084508;28;20040;-62
2022/12/19 23:02:26;;;;;;;25.45;13.27;;;;;;;;;;21083916;28;20098;-62
2022/12/19 23:12:28;;;;;;;22.70;13.55;;;;;;;;;;21083873;28;20484;-63
2022/12/19 23:22:30;;;;;;;20.65;12.65;;;;;;;;;;21082936;28;20047;-62
2022/12/19 23:32:31;;;;;;;25.73;13.52;;;;;;;;;;21081436;28;20066;-62
2022/12/19 23:42:33;;;;;;;23.58;13.93;;;;;;;;;;21080105;28;20048;-62
2022/12/19 23:52:35;;;;;;;24.13;13.10;;;;;;;;;;21079017;28;20134;-61
